createdAt,value
2023-02-22T00:01:02.909Z,5.53
2023-02-22T00:03:35.124Z,4.97
2023-02-22T00:06:05.009Z,4.72
2023-02-22T00:08:37.253Z,5.18
2023-02-22T00:11:10.279Z,5.22
2023-02-22T00:13:38.574Z,4.22
2023-02-22T00:16:05.909Z,5.88
2023-02-22T00:18:32.895Z,5.63
2023-02-22T00:21:01.110Z,5.13
2023-02-22T00:23:30.528Z,5.35
2023-02-22T00:25:58.622Z,5.65
2023-02-22T00:28:25.693Z,5.00
2023-02-22T00:30:54.706Z,4.30
2023-02-22T00:33:21.562Z,4.18
2023-02-22T00:35:48.459Z,4.00
2023-02-22T00:38:17.907Z,4.78
2023-02-22T00:40:45.471Z,4.13
2023-02-22T00:43:12.755Z,4.30
2023-02-22T00:45:39.705Z,4.88
2023-02-22T00:48:07.171Z,4.28
2023-02-22T00:50:34.458Z,4.50
2023-02-22T00:53:03.744Z,4.75
2023-02-22T00:55:32.922Z,4.65
2023-02-22T00:58:01.909Z,5.88
2023-02-22T01:00:37.252Z,5.38
2023-02-22T01:03:09.589Z,6.35
2023-02-22T01:05:38.228Z,4.88
2023-02-22T01:08:06.593Z,5.78
2023-02-22T01:10:37.137Z,6.47
2023-02-22T01:13:08.681Z,5.82
2023-02-22T01:15:37.895Z,6.35
2023-02-22T01:18:05.244Z,5.60
2023-02-22T01:20:32.681Z,4.72
2023-02-22T01:23:01.591Z,6.03
2023-02-22T01:25:30.536Z,7.13
2023-02-22T01:27:58.974Z,11.88
2023-02-22T01:30:32.969Z,10.30
2023-02-22T01:33:01.438Z,11.07
2023-02-22T01:35:31.989Z,11.82
2023-02-22T01:37:59.148Z,12.18
2023-02-22T01:40:38.519Z,12.55
2023-02-22T01:43:24.925Z,10.40
2023-02-22T01:45:54.898Z,8.27
2023-02-22T01:48:30.807Z,8.77
2023-02-22T01:51:10.634Z,7.40
2023-02-22T01:53:43.858Z,5.78
2023-02-22T01:56:11.612Z,6.10
2023-02-22T01:58:42.581Z,4.85
2023-02-22T02:01:10.288Z,5.93
2023-02-22T02:03:39.780Z,4.78
2023-02-22T02:06:12.334Z,5.30
2023-02-22T02:08:58.758Z,4.65
2023-02-22T02:11:26.633Z,4.60
2023-02-22T02:13:56.094Z,4.75
2023-02-22T02:16:27.525Z,3.97
2023-02-22T02:18:54.902Z,4.07
2023-02-22T02:21:41.045Z,5.15
2023-02-22T02:24:45.600Z,4.40
2023-02-22T02:27:12.354Z,4.60
2023-02-22T02:30:14.010Z,4.30
2023-02-22T02:32:53.548Z,4.72
2023-02-22T02:35:29.177Z,4.35
2023-02-22T02:37:58.822Z,4.00
2023-02-22T02:40:43.910Z,4.43
2023-02-22T02:43:32.105Z,4.47
2023-02-22T02:46:06.474Z,4.65
2023-02-22T02:48:35.149Z,5.28
2023-02-22T02:51:05.692Z,4.28
2023-02-22T02:53:42.976Z,4.22
2023-02-22T02:56:09.833Z,4.22
2023-02-22T02:58:49.043Z,3.17
2023-02-22T03:01:25.888Z,3.38
2023-02-22T03:04:21.053Z,2.80
2023-02-22T03:06:59.827Z,3.42
2023-02-22T03:09:40.074Z,4.10
2023-02-22T03:12:33.206Z,3.65
2023-02-22T03:15:11.708Z,4.90
2023-02-22T03:17:44.978Z,4.20
2023-02-22T03:20:21.130Z,4.28
2023-02-22T03:23:01.201Z,4.68
2023-02-22T03:25:37.035Z,4.38
2023-02-22T03:28:11.473Z,4.55
2023-02-22T03:30:46.889Z,3.85
2023-02-22T03:33:24.439Z,4.82
2023-02-22T03:35:59.763Z,3.65
2023-02-22T03:38:30.584Z,3.80
2023-02-22T03:41:01.878Z,3.40
2023-02-22T03:43:49.365Z,4.75
2023-02-22T03:46:19.417Z,4.55
2023-02-22T03:48:57.258Z,4.35
2023-02-22T03:51:24.740Z,5.40
2023-02-22T03:53:52.203Z,4.32
2023-02-22T03:56:24.647Z,4.72
2023-02-22T03:58:51.933Z,4.97
2023-02-22T04:01:20.042Z,4.00
2023-02-22T04:03:46.929Z,4.65
2023-02-22T04:06:13.899Z,4.75
2023-02-22T04:08:40.760Z,3.50
2023-02-22T04:11:07.618Z,4.18
2023-02-22T04:13:34.529Z,3.30
2023-02-22T04:16:01.560Z,4.57
2023-02-22T04:18:28.691Z,4.65
2023-02-22T04:20:55.573Z,4.80
2023-02-22T04:23:22.562Z,4.85
2023-02-22T04:25:49.536Z,4.75
2023-02-22T04:28:16.488Z,3.95
2023-02-22T04:30:43.947Z,4.15
2023-02-22T04:33:10.921Z,4.53
2023-02-22T04:35:38.199Z,3.72
2023-02-22T04:38:05.661Z,4.15
2023-02-22T04:40:33.337Z,4.63
2023-02-22T04:43:00.429Z,3.92
2023-02-22T04:45:27.524Z,3.40
2023-02-22T04:47:54.434Z,3.63
2023-02-22T04:50:21.346Z,5.13
2023-02-22T04:52:49.417Z,4.03
2023-02-22T04:55:16.695Z,4.70
2023-02-22T04:57:43.607Z,5.63
2023-02-22T05:00:11.268Z,4.82
2023-02-22T05:02:41.228Z,4.55
2023-02-22T05:05:08.352Z,4.65
2023-02-22T05:07:35.233Z,3.47
2023-02-22T05:10:02.697Z,4.57
2023-02-22T05:12:29.550Z,3.60
2023-02-22T05:14:56.401Z,4.05
2023-02-22T05:17:23.612Z,4.35
2023-02-22T05:19:50.387Z,4.20
2023-02-22T05:22:17.699Z,3.45
2023-02-22T05:24:44.617Z,3.90
2023-02-22T05:27:11.913Z,2.65
2023-02-22T05:29:38.992Z,4.00
2023-02-22T05:32:06.809Z,3.83
2023-02-22T05:34:33.701Z,3.65
2023-02-22T05:37:00.543Z,4.03
2023-02-22T05:39:27.400Z,4.05
2023-02-22T05:41:54.212Z,4.00
2023-02-22T05:44:21.174Z,4.10
2023-02-22T05:46:48.123Z,8.25
2023-02-22T05:49:15.944Z,10.25
2023-02-22T05:51:42.766Z,9.05
2023-02-22T05:54:09.500Z,8.43
2023-02-22T05:56:36.639Z,5.65
2023-02-22T05:59:05.068Z,5.35
2023-02-22T06:01:31.861Z,6.30
2023-02-22T06:03:58.729Z,4.47
2023-02-22T06:06:25.540Z,5.38
2023-02-22T06:08:52.432Z,6.13
2023-02-22T06:11:19.931Z,5.47
2023-02-22T06:13:53.542Z,5.40
2023-02-22T06:16:21.999Z,5.55
2023-02-22T06:18:49.450Z,6.60
2023-02-22T06:21:17.611Z,5.35
2023-02-22T06:23:44.704Z,6.22
2023-02-22T06:26:11.564Z,6.20
2023-02-22T06:28:38.541Z,6.13
2023-02-22T06:31:05.630Z,6.30
2023-02-22T06:33:32.416Z,6.53
2023-02-22T06:35:59.271Z,6.45
2023-02-22T06:38:27.688Z,7.70
2023-02-22T06:40:58.182Z,5.43
2023-02-22T06:43:25.680Z,7.38
2023-02-22T06:45:52.790Z,5.50
2023-02-22T06:48:19.768Z,4.90
2023-02-22T06:50:46.697Z,3.58
2023-02-22T06:53:13.533Z,6.97
2023-02-22T06:55:40.329Z,10.18
2023-02-22T06:58:07.446Z,8.95
2023-02-22T07:00:34.450Z,6.70
2023-02-22T07:03:01.523Z,5.78
2023-02-22T07:05:29.183Z,5.20
2023-02-22T07:08:03.626Z,4.90
2023-02-22T07:10:32.412Z,4.78
2023-02-22T07:12:59.508Z,5.05
2023-02-22T07:15:28.674Z,5.93
2023-02-22T07:17:56.628Z,8.80
2023-02-22T07:20:25.701Z,5.72
2023-02-22T07:22:52.984Z,6.68
2023-02-22T07:25:20.795Z,5.22
2023-02-22T07:27:47.962Z,8.60
2023-02-22T07:30:25.567Z,7.10
2023-02-22T07:32:54.894Z,12.68
2023-02-22T07:35:28.186Z,7.65
2023-02-22T07:37:56.058Z,6.90
2023-02-22T07:40:24.130Z,7.97
2023-02-22T07:43:17.918Z,6.32
2023-02-22T07:45:45.910Z,6.50
2023-02-22T07:48:15.098Z,6.97
2023-02-22T07:50:43.682Z,6.55
2023-02-22T07:53:19.225Z,6.55
2023-02-22T07:55:47.787Z,7.38
2023-02-22T07:58:15.731Z,7.28
2023-02-22T08:00:44.149Z,6.68
2023-02-22T08:03:13.789Z,6.00
2023-02-22T08:05:42.786Z,7.60
2023-02-22T08:08:09.577Z,6.05
2023-02-22T08:10:36.507Z,6.57
2023-02-22T08:13:05.289Z,8.35
2023-02-22T08:15:34.841Z,8.27
2023-02-22T08:18:03.069Z,6.40
2023-02-22T08:20:30.430Z,6.10
2023-02-22T08:22:58.701Z,6.43
2023-02-22T08:25:27.756Z,6.90
2023-02-22T08:28:01.757Z,8.50
2023-02-22T08:30:30.792Z,7.50
2023-02-22T08:32:58.955Z,5.88
2023-02-22T08:35:27.526Z,5.40
2023-02-22T08:37:58.645Z,5.78
2023-02-22T08:40:27.824Z,5.93
2023-02-22T08:42:55.031Z,6.63
2023-02-22T08:45:21.985Z,6.97
2023-02-22T08:47:49.225Z,10.02
2023-02-22T08:50:24.748Z,6.63
2023-02-22T08:52:52.748Z,5.53
2023-02-22T08:55:24.353Z,6.70
2023-02-22T08:57:51.222Z,6.00
2023-02-22T09:00:25.257Z,6.60
2023-02-22T09:02:52.944Z,6.25
2023-02-22T09:05:19.962Z,6.10
2023-02-22T09:07:46.903Z,5.65
2023-02-22T09:10:16.793Z,5.07
2023-02-22T09:12:43.860Z,5.68
2023-02-22T09:15:11.467Z,5.70
2023-02-22T09:17:38.470Z,5.75
2023-02-22T09:20:06.775Z,5.15
2023-02-22T09:22:33.686Z,5.18
2023-02-22T09:25:11.249Z,5.18
2023-02-22T09:27:44.015Z,4.95
2023-02-22T09:30:23.988Z,5.03
2023-02-22T09:32:56.021Z,4.00
2023-02-22T09:35:29.685Z,4.80
2023-02-22T09:37:58.493Z,4.88
2023-02-22T09:40:29.836Z,5.07
2023-02-22T09:43:07.184Z,3.80
2023-02-22T09:45:56.979Z,4.57
2023-02-22T09:48:25.260Z,4.40
2023-02-22T09:50:58.540Z,4.07
2023-02-22T09:53:32.106Z,4.18
2023-02-22T09:56:11.044Z,4.15
2023-02-22T09:58:45.791Z,4.22
2023-02-22T10:01:23.042Z,3.83
2023-02-22T10:04:04.677Z,4.78
2023-02-22T10:06:33.883Z,5.53
2023-02-22T10:09:07.683Z,4.88
2023-02-22T10:11:46.566Z,5.00
2023-02-22T10:14:34.649Z,4.28
2023-02-22T10:17:24.594Z,4.32
2023-02-22T10:20:13.409Z,3.95
2023-02-22T10:23:00.757Z,4.72
2023-02-22T10:25:30.395Z,4.07
2023-02-22T10:28:27.772Z,4.93
2023-02-22T10:30:59.120Z,4.15
2023-02-22T10:33:41.286Z,5.30
2023-02-22T10:36:19.115Z,4.65
2023-02-22T10:38:55.527Z,4.10
2023-02-22T10:41:32.248Z,4.28
2023-02-22T10:43:59.607Z,4.00
2023-02-22T10:46:29.435Z,4.40
2023-02-22T10:49:02.678Z,4.45
2023-02-22T10:51:29.555Z,2.85
2023-02-22T10:54:10.662Z,3.80
2023-02-22T10:56:47.652Z,4.22
2023-02-22T10:59:45.175Z,3.97
2023-02-22T11:02:31.433Z,3.83
2023-02-22T11:05:01.296Z,4.38
2023-02-22T11:07:35.246Z,3.00
2023-02-22T11:10:10.273Z,3.70
2023-02-22T11:12:39.669Z,3.60
2023-02-22T11:15:24.546Z,2.95
2023-02-22T11:17:53.621Z,3.53
2023-02-22T11:20:25.312Z,3.33
2023-02-22T11:23:01.070Z,4.40
2023-02-22T11:25:36.920Z,3.15
2023-02-22T11:28:17.757Z,3.50
2023-02-22T11:30:49.705Z,2.83
2023-02-22T11:33:16.839Z,3.60
2023-02-22T11:35:57.285Z,4.32
2023-02-22T11:38:28.486Z,3.17
2023-02-22T11:41:16.324Z,3.25
2023-02-22T11:43:46.414Z,2.58
2023-02-22T11:46:14.793Z,4.97
2023-02-22T11:48:48.506Z,3.63
2023-02-22T11:51:28.853Z,3.92
2023-02-22T11:54:08.792Z,2.85
2023-02-22T11:56:48.262Z,3.05
2023-02-22T11:59:36.662Z,3.95
2023-02-22T12:02:18.899Z,3.28
2023-02-22T12:05:28.761Z,3.92
2023-02-22T12:08:05.280Z,3.15
2023-02-22T12:10:55.448Z,3.33
2023-02-22T12:13:42.552Z,3.35
2023-02-22T12:16:25.267Z,4.45
2023-02-22T12:19:11.411Z,4.05
2023-02-22T12:21:42.624Z,3.70
2023-02-22T12:24:16.556Z,3.05
2023-02-22T12:27:01.162Z,3.17
2023-02-22T12:29:47.081Z,3.53
2023-02-22T12:32:41.676Z,3.25
2023-02-22T12:35:21.536Z,2.88
2023-02-22T12:37:58.430Z,3.17
2023-02-22T12:40:45.053Z,3.60
2023-02-22T12:43:36.565Z,3.13
2023-02-22T12:46:16.094Z,3.72
2023-02-22T12:48:45.867Z,3.17
2023-02-22T12:51:35.898Z,4.75
2023-02-22T12:54:13.358Z,3.78
2023-02-22T12:56:58.977Z,4.03
2023-02-22T12:59:38.162Z,3.28
2023-02-22T13:02:31.096Z,4.35
2023-02-22T13:04:57.951Z,4.38
2023-02-22T13:07:56.776Z,3.30
2023-02-22T13:10:56.030Z,3.20
2023-02-22T13:13:56.737Z,4.45
2023-02-22T13:16:32.370Z,2.63
2023-02-22T13:19:07.443Z,3.08
2023-02-22T13:21:34.142Z,3.47
2023-02-22T13:24:16.752Z,2.97
2023-02-22T13:26:50.669Z,2.00
2023-02-22T13:29:30.749Z,2.55
2023-02-22T13:32:09.513Z,3.47
2023-02-22T13:34:45.181Z,3.22
2023-02-22T13:37:26.801Z,2.67
2023-02-22T13:40:20.413Z,2.55
2023-02-22T13:42:53.247Z,3.03
2023-02-22T13:46:01.974Z,3.28
2023-02-22T13:48:57.788Z,2.70
2023-02-22T13:51:34.682Z,3.10
2023-02-22T13:54:10.162Z,3.67
2023-02-22T13:56:43.388Z,2.85
2023-02-22T13:59:33.790Z,2.80
2023-02-22T14:02:04.436Z,2.67
2023-02-22T14:04:31.219Z,3.22
2023-02-22T14:07:25.861Z,2.60
2023-02-22T14:09:56.054Z,2.65
2023-02-22T14:12:29.127Z,2.72
2023-02-22T14:15:28.153Z,2.95
2023-02-22T14:18:03.824Z,4.63
2023-02-22T14:20:35.505Z,2.90
2023-02-22T14:23:28.822Z,2.60
2023-02-22T14:25:57.173Z,2.70
2023-02-22T14:28:36.458Z,3.60
2023-02-22T14:31:22.577Z,2.60
2023-02-22T14:33:59.157Z,2.70
2023-02-22T14:36:35.240Z,2.85
2023-02-22T14:39:50.157Z,2.78
2023-02-22T14:42:28.571Z,2.90
2023-02-22T14:45:01.316Z,2.30
2023-02-22T14:47:40.019Z,3.53
2023-02-22T14:50:25.204Z,2.80
2023-02-22T14:53:04.477Z,2.65
2023-02-22T14:55:37.470Z,2.40
2023-02-22T14:58:13.294Z,3.38
2023-02-22T15:00:42.323Z,4.07
2023-02-22T15:03:33.289Z,3.65
2023-02-22T15:06:14.895Z,3.22
2023-02-22T15:08:48.558Z,2.92
2023-02-22T15:11:36.779Z,1.67
2023-02-22T15:14:37.704Z,2.50
2023-02-22T15:17:22.880Z,2.15
2023-02-22T15:19:50.477Z,2.38
2023-02-22T15:22:33.784Z,3.47
2023-02-22T15:25:03.070Z,2.90
2023-02-22T15:27:30.113Z,3.55
2023-02-22T15:30:04.685Z,5.47
2023-02-22T15:32:38.121Z,7.65
2023-02-22T15:35:26.144Z,10.70
2023-02-22T15:38:06.208Z,5.20
2023-02-22T15:40:34.327Z,6.20
2023-02-22T15:43:04.326Z,6.22
2023-02-22T15:45:34.553Z,4.40
2023-02-22T15:48:02.029Z,4.65
2023-02-22T15:50:33.275Z,4.95
2023-02-22T15:53:05.172Z,7.88
2023-02-22T15:55:40.765Z,6.00
2023-02-22T15:58:16.432Z,5.55
2023-02-22T16:00:46.858Z,6.90
2023-02-22T16:03:28.343Z,3.58
2023-02-22T16:05:56.790Z,3.08
2023-02-22T16:08:45.759Z,6.95
2023-02-22T16:11:32.772Z,3.53
2023-02-22T16:14:23.171Z,4.55
2023-02-22T16:16:50.135Z,7.30
2023-02-22T16:19:34.966Z,5.45
2023-02-22T16:22:04.165Z,4.23
2023-02-22T16:24:36.366Z,6.43
2023-02-22T16:27:17.138Z,4.50
2023-02-22T16:29:45.175Z,3.10
2023-02-22T16:32:12.076Z,2.85
2023-02-22T16:34:38.959Z,3.88
2023-02-22T16:37:22.102Z,5.28
2023-02-22T16:39:51.806Z,2.72
2023-02-22T16:42:24.104Z,2.80
2023-02-22T16:44:52.234Z,3.15
2023-02-22T16:47:19.974Z,2.83
2023-02-22T16:49:52.778Z,2.97
2023-02-22T16:52:20.603Z,6.47
2023-02-22T16:54:48.775Z,3.65
2023-02-22T16:57:21.872Z,4.15
2023-02-22T16:59:52.110Z,3.50
2023-02-22T17:02:20.070Z,5.53
2023-02-22T17:04:50.109Z,3.95
2023-02-22T17:07:24.012Z,4.55
2023-02-22T17:09:53.508Z,4.28
2023-02-22T17:12:20.296Z,3.65
2023-02-22T17:14:47.122Z,3.88
2023-02-22T17:17:15.456Z,4.00
2023-02-22T17:19:42.463Z,3.63
2023-02-22T17:22:21.475Z,3.50
2023-02-22T17:24:48.795Z,3.08
2023-02-22T17:27:15.851Z,3.08
2023-02-22T17:29:44.054Z,5.65
2023-02-22T17:32:12.466Z,3.90
2023-02-22T17:34:39.386Z,5.13
2023-02-22T17:37:06.454Z,5.10
2023-02-22T17:39:33.470Z,3.05
2023-02-22T17:42:00.334Z,4.20
2023-02-22T17:44:27.207Z,2.97
2023-02-22T17:46:54.078Z,2.65
2023-02-22T17:49:20.913Z,3.85
2023-02-22T17:51:49.758Z,5.15
2023-02-22T17:54:17.912Z,4.28
2023-02-22T17:56:45.129Z,4.45
2023-02-22T17:59:12.035Z,3.03
2023-02-22T18:01:38.968Z,4.43
2023-02-22T18:04:06.159Z,9.60
2023-02-22T18:06:33.317Z,5.03
2023-02-22T18:09:01.127Z,3.85
2023-02-22T18:11:32.422Z,5.00
2023-02-22T18:13:59.790Z,5.55
2023-02-22T18:16:26.954Z,5.18
2023-02-22T18:18:55.069Z,3.85
2023-02-22T18:21:22.486Z,3.33
2023-02-22T18:23:49.281Z,3.45
2023-02-22T18:26:18.767Z,4.85
2023-02-22T18:28:48.535Z,3.97
2023-02-22T18:31:17.780Z,4.15
2023-02-22T18:33:47.738Z,4.47
2023-02-22T18:36:15.601Z,4.03
2023-02-22T18:38:43.665Z,3.65
2023-02-22T18:41:16.845Z,4.68
2023-02-22T18:43:43.816Z,3.50
2023-02-22T18:46:17.840Z,4.15
2023-02-22T18:48:46.821Z,3.20
2023-02-22T18:51:15.863Z,3.50
2023-02-22T18:53:47.920Z,3.95
2023-02-22T18:56:21.577Z,4.72
2023-02-22T18:58:59.778Z,3.35
2023-02-22T19:01:26.831Z,3.53
2023-02-22T19:03:54.066Z,3.53
2023-02-22T19:06:24.276Z,3.67
2023-02-22T19:08:51.395Z,3.50
2023-02-22T19:11:21.764Z,4.88
2023-02-22T19:13:51.775Z,4.32
2023-02-22T19:16:20.165Z,4.40
2023-02-22T19:18:48.635Z,4.35
2023-02-22T19:21:16.351Z,4.82
2023-02-22T19:23:46.282Z,5.30
2023-02-22T19:26:17.092Z,5.38
2023-02-22T19:28:48.445Z,4.50
2023-02-22T19:31:29.447Z,5.25
2023-02-22T19:34:03.693Z,3.28
2023-02-22T19:36:30.748Z,4.53
2023-02-22T19:39:01.709Z,5.20
2023-02-22T19:41:29.506Z,5.18
2023-02-22T19:43:56.645Z,4.97
2023-02-22T19:46:24.974Z,4.88
2023-02-22T19:48:53.338Z,4.68
2023-02-22T19:51:25.215Z,4.47
2023-02-22T19:53:53.068Z,5.43
2023-02-22T19:56:26.947Z,5.07
2023-02-22T19:58:56.258Z,5.35
2023-02-22T20:01:27.032Z,5.70
2023-02-22T20:04:00.132Z,5.53
2023-02-22T20:06:31.312Z,6.00
2023-02-22T20:08:58.232Z,4.45
2023-02-22T20:11:25.324Z,5.15
2023-02-22T20:13:52.400Z,6.10
2023-02-22T20:16:19.255Z,5.13
2023-02-22T20:18:48.082Z,5.22
2023-02-22T20:21:26.878Z,5.43
2023-02-22T20:23:57.231Z,5.03
2023-02-22T20:26:25.309Z,5.70
2023-02-22T20:28:52.893Z,5.68
2023-02-22T20:31:21.119Z,6.25
2023-02-22T20:33:52.195Z,5.47
2023-02-22T20:36:20.050Z,5.57
2023-02-22T20:38:46.962Z,5.38
2023-02-22T20:41:20.059Z,6.72
2023-02-22T20:43:50.831Z,5.22
2023-02-22T20:46:17.720Z,5.78
2023-02-22T20:48:44.567Z,6.00
2023-02-22T20:51:13.181Z,5.18
2023-02-22T20:53:41.886Z,5.40
2023-02-22T20:56:13.975Z,5.50
2023-02-22T20:58:41.444Z,5.22
2023-02-22T21:01:14.168Z,5.90
2023-02-22T21:03:44.210Z,4.75
2023-02-22T21:06:15.354Z,5.20
2023-02-22T21:08:43.504Z,5.90
2023-02-22T21:11:15.138Z,5.43
2023-02-22T21:13:42.479Z,4.97
2023-02-22T21:16:16.900Z,5.40
2023-02-22T21:18:43.661Z,6.18
2023-02-22T21:21:12.135Z,5.47
2023-02-22T21:23:40.856Z,5.20
2023-02-22T21:26:13.798Z,6.43
2023-02-22T21:28:50.789Z,5.10
2023-02-22T21:31:21.005Z,5.10
2023-02-22T21:33:53.216Z,5.82
2023-02-22T21:36:21.045Z,5.80
2023-02-22T21:38:53.171Z,6.03
2023-02-22T21:41:21.630Z,5.28
2023-02-22T21:43:51.991Z,6.05
2023-02-22T21:46:19.502Z,5.05
2023-02-22T21:48:50.192Z,6.45
2023-02-22T21:51:22.462Z,5.82
2023-02-22T21:53:54.872Z,5.85
2023-02-22T21:56:24.413Z,6.03
2023-02-22T21:58:59.284Z,7.00
2023-02-22T22:01:31.678Z,5.50
2023-02-22T22:03:59.750Z,5.93
2023-02-22T22:06:28.128Z,5.55
2023-02-22T22:08:55.403Z,5.70
2023-02-22T22:11:22.672Z,6.32
2023-02-22T22:13:49.501Z,6.65
2023-02-22T22:16:20.251Z,6.85
2023-02-22T22:18:47.619Z,5.53
2023-02-22T22:21:18.523Z,6.82
2023-02-22T22:23:47.146Z,6.70
2023-02-22T22:26:20.122Z,5.63
2023-02-22T22:28:52.642Z,4.88
2023-02-22T22:31:21.456Z,5.55
2023-02-22T22:33:48.930Z,5.88
2023-02-22T22:36:18.361Z,5.95
2023-02-22T22:38:48.297Z,6.00
2023-02-22T22:41:17.705Z,5.75
2023-02-22T22:43:46.058Z,5.25
2023-02-22T22:46:15.329Z,7.10
2023-02-22T22:48:42.850Z,6.10
2023-02-22T22:51:12.421Z,6.97
2023-02-22T22:53:42.294Z,6.25
2023-02-22T22:56:14.870Z,6.03
2023-02-22T22:58:46.354Z,5.90
2023-02-22T23:01:18.440Z,6.38
2023-02-22T23:03:55.219Z,6.55
2023-02-22T23:06:33.320Z,5.53
2023-02-22T23:09:13.582Z,5.53
2023-02-22T23:11:46.013Z,4.97
2023-02-22T23:14:21.422Z,5.88
2023-02-22T23:16:49.993Z,5.32
2023-02-22T23:19:19.066Z,5.47
2023-02-22T23:21:48.159Z,5.97
2023-02-22T23:24:17.235Z,5.60
2023-02-22T23:26:48.943Z,6.15
2023-02-22T23:29:18.020Z,5.30
2023-02-22T23:31:48.084Z,6.50
2023-02-22T23:34:17.038Z,6.22
2023-02-22T23:36:46.815Z,6.20
2023-02-22T23:39:15.788Z,5.03
2023-02-22T23:41:42.930Z,5.75
2023-02-22T23:44:17.443Z,5.80
2023-02-22T23:46:48.197Z,5.95
2023-02-22T23:49:20.507Z,5.78
2023-02-22T23:51:48.320Z,5.80
2023-02-22T23:54:20.366Z,6.55
2023-02-22T23:56:56.432Z,6.97
2023-02-22T23:59:25.140Z,6.95
